Terminal Aerodrome Forecast
Issued by NWS Sterling, VA

Current Version | Previous Version | Graphics & Text | Print | Product List | Glossary On
Versions: 1 2 3 4 5 6 7 8 9 10 11 12 13 14 15 16 17 18 19 20 21 22 23 24 25 26
000
FTUS41 KLWX 020919 AAA
TAFDCA
TAF AMD
KDCA 020919Z 0209/0306 10004KT 2SM -DZ BR OVC003
     FM021100 16005KT 3SM -DZ BR OVC003
     FM021500 20005KT P6SM OVC005
     FM021700 21009KT P6SM BKN025
     FM022200 23008KT P6SM -SHRA VCTS BKN050CB
     FM030200 30006KT 6SM -SHRA OVC025=

USA.gov is the U.S. government's official web portal to all federal, state and local government web resources and services.